KDCU/DCU METAR and TAF weather

Enter ICAO airport designator
Station Type Date Time Source
KDCU METAR 2018/12/13 14:53 UTC NOAA

KDCU 131453Z AUTO 14010KT 10SM FEW029 09/04 A3013 RMK AO2 SLP204 T00940039 51009


Station Type Date Time Source
KDCU Decoded METAR 2018/12/13 14:53 UTC NOAA

PRYOR FIELD, AL, United States (KDCU) 34-39N 086-57W 176M
Dec 13, 2018 - 09:53 AM EST / 2018.12.13 1453 UTC
Wind: from the SE (140 degrees) at 12 MPH (10 KT):0
Visibility: 10 mile(s):0
Sky conditions: mostly clear
Temperature: 48.9 F (9.4 C)
Dew Point: 39.0 F (3.9 C)
Relative Humidity: 68%
Pressure (altimeter): 30.13 in. Hg (1020 hPa)
Pressure tendency: 0.03 inches (0.9 hPa) higher than three hours ago
ob: KDCU 131453Z AUTO 14010KT 10SM FEW029 09/04 A3013 RMK AO2 SLP204 T00940039 51009
cycle: 15

Station Type Date Time Source
KDCU TAF UTC NOAA

Error!


Example: see airport list